Aspinwall, Pennsylvania
Current Conditions -  °F | °C
As of 6:53 PM on Wednesday 22 Oct 2014 (Local Time) from KAGC Reporting Station
Overcast Overcast  
Wind Chill: 43°   Ceiling: 1900
Heat Index: 48°   Visibility: 10mi
Dew Point: 39°   Wind: 13mph
Humidity: 71%   Direction: 340°NNW
Pressure: 30.15"   Gusts: 22mph
Location:  40.5049°N, 79.9132°W
Report Text: KAGC 222253Z 34011G19KT 10SM OVC019 09/04 A3015 RMK AO2 SLP219 T00890039
Loading
Personal Weather Stations






























Interactive Weather Map
Tropical Storm Tracking
New forecast layout! Learn more

10-Day Weather Forecast

Advertisements
Track Severe Weather on mobile